Main page
METAR-TAF:

METAR-TAF

Airports :

Karlsruhe/Baden-Baden Airport

Baden-Baden, Germany

latitude: 48-46-43N, longitude: 008-04-47E, elevation: 124 m

Current weather observation

The report was made 18 minutes ago, at 14:50 UTC
Wind 8 kt from the North, varying between West/Northwest and Northeast
Temperature 34°C
Humidity 36%
Pressure 1017 hPa
Visibility 10 km or more
no clouds below 1500 m and no cumulonimbus

METAR: EDSB 071450Z 35008KT 290V040 CAVOK 34/17 Q1017

Time: 17:08 (15:08 UTC)

Forecast

The report was made 4 hours and 8 minutes ago, at 11:00 UTC
Forecast valid from 07 at 12 UTC to 08 at 12 UTC
Wind 10 kt from the North/Northeast
Visibility 10 km or more
no clouds below 1500 m and no cumulonimbus
Becoming
from 07 at 16 UTC to 07 at 19 UTC
Wind 5 kt from the North

TAF: EDSB 071100Z 0712/0812 02010KT CAVOK BECMG 0716/0719 01005KT

Weather observations and forecasts of more than 4000 airports (METAR and TAF reports).

The available stations are represented by yellow and red dots on the map.

Hover mouse over dot to see the name of the station.

Then click to see weather observations and forecasts.

To change the map : click on the green buttons with a black cross to zoom in, on the green button with a dash to zoom out, or on the green arrows for adjacent maps.


METAR-TAF: